sensor_id;sensor_type;location;lat;lon;timestamp;P1;P2;P0
74333;PMS5003;62753;40.394;-80.022;2023-10-31T00:02:23;4;4;
74333;PMS5003;62753;40.394;-80.022;2023-10-31T00:04:49;3;3;
74333;PMS5003;62753;40.394;-80.022;2023-10-31T00:07:14;6;5;
74333;PMS5003;62753;40.394;-80.022;2023-10-31T00:09:40;7;6;
74333;PMS5003;62753;40.394;-80.022;2023-10-31T00:12:05;6;5;
74333;PMS5003;62753;40.394;-80.022;2023-10-31T00:14:31;4;4;
74333;PMS5003;62753;40.394;-80.022;2023-10-31T00:16:57;7;6;
74333;PMS5003;62753;40.394;-80.022;2023-10-31T00:19:22;7;6;
74333;PMS5003;62753;40.394;-80.022;2023-10-31T00:21:47;8;7;
74333;PMS5003;62753;40.394;-80.022;2023-10-31T00:24:13;3;3;
74333;PMS5003;62753;40.394;-80.022;2023-10-31T00:26:38;8;8;
74333;PMS5003;62753;40.394;-80.022;2023-10-31T00:29:04;6;5;
74333;PMS5003;62753;40.394;-80.022;2023-10-31T00:31:29;8;6;
74333;PMS5003;62753;40.394;-80.022;2023-10-31T00:33:54;10;10;
74333;PMS5003;62753;40.394;-80.022;2023-10-31T00:36:20;6;6;
74333;PMS5003;62753;40.394;-80.022;2023-10-31T00:38:46;9;8;
74333;PMS5003;62753;40.394;-80.022;2023-10-31T00:41:11;8;7;
74333;PMS5003;62753;40.394;-80.022;2023-10-31T00:43:37;10;9;
74333;PMS5003;62753;40.394;-80.022;2023-10-31T00:46:03;11;10;
74333;PMS5003;62753;40.394;-80.022;2023-10-31T00:48:27;9;8;
74333;PMS5003;62753;40.394;-80.022;2023-10-31T00:50:53;9;8;
74333;PMS5003;62753;40.394;-80.022;2023-10-31T00:53:18;8;7;
74333;PMS5003;62753;40.394;-80.022;2023-10-31T00:55:44;8;8;
74333;PMS5003;62753;40.394;-80.022;2023-10-31T00:58:09;8;7;
74333;PMS5003;62753;40.394;-80.022;2023-10-31T01:00:35;11;11;
74333;PMS5003;62753;40.394;-80.022;2023-10-31T01:03:00;9;8;
74333;PMS5003;62753;40.394;-80.022;2023-10-31T01:05:25;8;7;
74333;PMS5003;62753;40.394;-80.022;2023-10-31T01:07:51;7;7;
74333;PMS5003;62753;40.394;-80.022;2023-10-31T01:10:16;10;8;
74333;PMS5003;62753;40.394;-80.022;2023-10-31T01:12:42;11;10;
74333;PMS5003;62753;40.394;-80.022;2023-10-31T01:15:08;9;9;
74333;PMS5003;62753;40.394;-80.022;2023-10-31T01:17:33;9;8;
74333;PMS5003;62753;40.394;-80.022;2023-10-31T01:19:58;8;7;
74333;PMS5003;62753;40.394;-80.022;2023-10-31T01:22:24;6;6;
74333;PMS5003;62753;40.394;-80.022;2023-10-31T01:24:49;10;9;
74333;PMS5003;62753;40.394;-80.022;2023-10-31T01:27:15;8;8;
74333;PMS5003;62753;40.394;-80.022;2023-10-31T01:29:40;7;7;
74333;PMS5003;62753;40.394;-80.022;2023-10-31T01:32:06;7;7;
74333;PMS5003;62753;40.394;-80.022;2023-10-31T01:34:31;13;11;
74333;PMS5003;62753;40.394;-80.022;2023-10-31T01:36:56;10;10;
74333;PMS5003;62753;40.394;-80.022;2023-10-31T01:39:22;10;9;
74333;PMS5003;62753;40.394;-80.022;2023-10-31T01:41:48;12;12;
74333;PMS5003;62753;40.394;-80.022;2023-10-31T01:44:13;12;10;
74333;PMS5003;62753;40.394;-80.022;2023-10-31T01:46:38;12;10;
74333;PMS5003;62753;40.394;-80.022;2023-10-31T01:49:04;15;10;
74333;PMS5003;62753;40.394;-80.022;2023-10-31T01:51:29;9;8;
74333;PMS5003;62753;40.394;-80.022;2023-10-31T01:53:55;8;7;
74333;PMS5003;62753;40.394;-80.022;2023-10-31T01:56:20;9;7;
74333;PMS5003;62753;40.394;-80.022;2023-10-31T01:58:46;6;6;
74333;PMS5003;62753;40.394;-80.022;2023-10-31T02:01:11;9;8;
74333;PMS5003;62753;40.394;-80.022;2023-10-31T02:03:37;6;6;
74333;PMS5003;62753;40.394;-80.022;2023-10-31T02:06:02;8;7;
74333;PMS5003;62753;40.394;-80.022;2023-10-31T02:08:28;9;9;
74333;PMS5003;62753;40.394;-80.022;2023-10-31T02:10:53;8;7;
74333;PMS5003;62753;40.394;-80.022;2023-10-31T02:13:18;9;8;
74333;PMS5003;62753;40.394;-80.022;2023-10-31T02:15:44;10;9;
74333;PMS5003;62753;40.394;-80.022;2023-10-31T02:18:09;10;8;
74333;PMS5003;62753;40.394;-80.022;2023-10-31T02:20:35;9;8;
74333;PMS5003;62753;40.394;-80.022;2023-10-31T02:23:00;7;6;
74333;PMS5003;62753;40.394;-80.022;2023-10-31T02:25:25;9;9;
74333;PMS5003;62753;40.394;-80.022;2023-10-31T02:27:51;9;8;
74333;PMS5003;62753;40.394;-80.022;2023-10-31T02:30:17;8;8;
74333;PMS5003;62753;40.394;-80.022;2023-10-31T02:32:41;9;8;
74333;PMS5003;62753;40.394;-80.022;2023-10-31T02:35:07;8;7;
74333;PMS5003;62753;40.394;-80.022;2023-10-31T02:37:33;9;9;
74333;PMS5003;62753;40.394;-80.022;2023-10-31T02:39:58;9;8;
74333;PMS5003;62753;40.394;-80.022;2023-10-31T02:42:24;11;10;
74333;PMS5003;62753;40.394;-80.022;2023-10-31T02:44:49;10;9;
74333;PMS5003;62753;40.394;-80.022;2023-10-31T02:47:14;8;6;
74333;PMS5003;62753;40.394;-80.022;2023-10-31T02:49:40;8;7;
74333;PMS5003;62753;40.394;-80.022;2023-10-31T02:52:05;7;7;
74333;PMS5003;62753;40.394;-80.022;2023-10-31T02:54:31;7;7;
74333;PMS5003;62753;40.394;-80.022;2023-10-31T02:56:58;10;10;
74333;PMS5003;62753;40.394;-80.022;2023-10-31T02:59:22;12;11;
74333;PMS5003;62753;40.394;-80.022;2023-10-31T03:01:47;12;11;
74333;PMS5003;62753;40.394;-80.022;2023-10-31T03:04:13;10;10;
74333;PMS5003;62753;40.394;-80.022;2023-10-31T03:06:38;8;7;
74333;PMS5003;62753;40.394;-80.022;2023-10-31T03:09:04;8;8;
74333;PMS5003;62753;40.394;-80.022;2023-10-31T03:11:29;9;9;
74333;PMS5003;62753;40.394;-80.022;2023-10-31T03:13:55;10;10;
74333;PMS5003;62753;40.394;-80.022;2023-10-31T03:16:20;14;11;
74333;PMS5003;62753;40.394;-80.022;2023-10-31T03:18:46;11;9;
74333;PMS5003;62753;40.394;-80.022;2023-10-31T03:21:11;13;11;
74333;PMS5003;62753;40.394;-80.022;2023-10-31T03:23:37;12;11;
74333;PMS5003;62753;40.394;-80.022;2023-10-31T03:26:02;9;9;
74333;PMS5003;62753;40.394;-80.022;2023-10-31T03:28:27;12;12;
74333;PMS5003;62753;40.394;-80.022;2023-10-31T03:30:52;20;12;
74333;PMS5003;62753;40.394;-80.022;2023-10-31T03:33:18;11;10;
74333;PMS5003;62753;40.394;-80.022;2023-10-31T03:35:44;9;8;
74333;PMS5003;62753;40.394;-80.022;2023-10-31T03:38:09;12;11;
74333;PMS5003;62753;40.394;-80.022;2023-10-31T03:40:34;7;7;
74333;PMS5003;62753;40.394;-80.022;2023-10-31T03:43:00;8;7;
74333;PMS5003;62753;40.394;-80.022;2023-10-31T03:45:25;8;7;
74333;PMS5003;62753;40.394;-80.022;2023-10-31T03:47:50;10;9;
74333;PMS5003;62753;40.394;-80.022;2023-10-31T03:50:16;8;7;
74333;PMS5003;62753;40.394;-80.022;2023-10-31T03:52:41;12;8;
74333;PMS5003;62753;40.394;-80.022;2023-10-31T03:55:07;8;8;
74333;PMS5003;62753;40.394;-80.022;2023-10-31T03:57:32;5;5;
74333;PMS5003;62753;40.394;-80.022;2023-10-31T03:59:57;10;9;
74333;PMS5003;62753;40.394;-80.022;2023-10-31T04:02:23;10;9;
74333;PMS5003;62753;40.394;-80.022;2023-10-31T04:04:49;8;7;
74333;PMS5003;62753;40.394;-80.022;2023-10-31T04:07:14;13;10;
74333;PMS5003;62753;40.394;-80.022;2023-10-31T04:09:39;10;9;
74333;PMS5003;62753;40.394;-80.022;2023-10-31T04:12:05;8;7;
74333;PMS5003;62753;40.394;-80.022;2023-10-31T04:14:30;10;10;
74333;PMS5003;62753;40.394;-80.022;2023-10-31T04:16:55;8;7;
74333;PMS5003;62753;40.394;-80.022;2023-10-31T04:19:21;8;7;
74333;PMS5003;62753;40.394;-80.022;2023-10-31T04:21:46;9;9;
74333;PMS5003;62753;40.394;-80.022;2023-10-31T04:24:12;10;10;
74333;PMS5003;62753;40.394;-80.022;2023-10-31T04:26:39;10;9;
74333;PMS5003;62753;40.394;-80.022;2023-10-31T04:29:03;9;8;
74333;PMS5003;62753;40.394;-80.022;2023-10-31T04:31:28;10;8;
74333;PMS5003;62753;40.394;-80.022;2023-10-31T04:33:54;8;8;
74333;PMS5003;62753;40.394;-80.022;2023-10-31T04:36:19;7;6;
74333;PMS5003;62753;40.394;-80.022;2023-10-31T04:38:45;9;9;
74333;PMS5003;62753;40.394;-80.022;2023-10-31T04:41:11;9;8;
74333;PMS5003;62753;40.394;-80.022;2023-10-31T04:43:36;7;7;
74333;PMS5003;62753;40.394;-80.022;2023-10-31T04:46:02;7;7;
74333;PMS5003;62753;40.394;-80.022;2023-10-31T04:48:27;9;8;
74333;PMS5003;62753;40.394;-80.022;2023-10-31T04:50:53;10;9;
74333;PMS5003;62753;40.394;-80.022;2023-10-31T04:53:18;9;8;
74333;PMS5003;62753;40.394;-80.022;2023-10-31T04:55:44;8;7;
74333;PMS5003;62753;40.394;-80.022;2023-10-31T04:58:09;11;10;
74333;PMS5003;62753;40.394;-80.022;2023-10-31T05:00:35;9;9;
74333;PMS5003;62753;40.394;-80.022;2023-10-31T05:03:00;11;9;
74333;PMS5003;62753;40.394;-80.022;2023-10-31T05:05:25;9;9;
74333;PMS5003;62753;40.394;-80.022;2023-10-31T05:07:51;11;9;
74333;PMS5003;62753;40.394;-80.022;2023-10-31T05:10:16;9;9;
74333;PMS5003;62753;40.394;-80.022;2023-10-31T05:12:42;11;11;
74333;PMS5003;62753;40.394;-80.022;2023-10-31T05:15:07;11;8;
74333;PMS5003;62753;40.394;-80.022;2023-10-31T05:17:33;14;10;
74333;PMS5003;62753;40.394;-80.022;2023-10-31T05:19:58;10;9;
74333;PMS5003;62753;40.394;-80.022;2023-10-31T05:22:24;11;9;
74333;PMS5003;62753;40.394;-80.022;2023-10-31T05:24:49;10;9;
74333;PMS5003;62753;40.394;-80.022;2023-10-31T05:27:15;10;9;
74333;PMS5003;62753;40.394;-80.022;2023-10-31T05:29:40;9;8;
74333;PMS5003;62753;40.394;-80.022;2023-10-31T05:32:06;8;7;
74333;PMS5003;62753;40.394;-80.022;2023-10-31T05:34:31;9;7;
74333;PMS5003;62753;40.394;-80.022;2023-10-31T05:36:57;10;10;
74333;PMS5003;62753;40.394;-80.022;2023-10-31T05:39:23;9;8;
74333;PMS5003;62753;40.394;-80.022;2023-10-31T05:41:48;10;9;
74333;PMS5003;62753;40.394;-80.022;2023-10-31T05:44:13;9;8;
74333;PMS5003;62753;40.394;-80.022;2023-10-31T05:46:39;10;10;
74333;PMS5003;62753;40.394;-80.022;2023-10-31T05:49:06;10;9;
74333;PMS5003;62753;40.394;-80.022;2023-10-31T05:51:29;9;9;
74333;PMS5003;62753;40.394;-80.022;2023-10-31T05:53:55;10;9;
74333;PMS5003;62753;40.394;-80.022;2023-10-31T05:56:21;10;8;
74333;PMS5003;62753;40.394;-80.022;2023-10-31T05:58:46;10;9;
74333;PMS5003;62753;40.394;-80.022;2023-10-31T06:01:11;9;8;
74333;PMS5003;62753;40.394;-80.022;2023-10-31T06:03:37;9;9;
74333;PMS5003;62753;40.394;-80.022;2023-10-31T06:06:03;10;9;
74333;PMS5003;62753;40.394;-80.022;2023-10-31T06:08:28;7;7;
74333;PMS5003;62753;40.394;-80.022;2023-10-31T06:10:54;9;8;
74333;PMS5003;62753;40.394;-80.022;2023-10-31T06:13:19;10;9;
74333;PMS5003;62753;40.394;-80.022;2023-10-31T06:15:44;10;9;
74333;PMS5003;62753;40.394;-80.022;2023-10-31T06:18:10;8;8;
74333;PMS5003;62753;40.394;-80.022;2023-10-31T06:20:35;7;7;
74333;PMS5003;62753;40.394;-80.022;2023-10-31T06:23:01;10;9;
74333;PMS5003;62753;40.394;-80.022;2023-10-31T06:25:26;9;8;
74333;PMS5003;62753;40.394;-80.022;2023-10-31T06:27:52;9;8;
74333;PMS5003;62753;40.394;-80.022;2023-10-31T06:30:17;11;10;
74333;PMS5003;62753;40.394;-80.022;2023-10-31T06:32:42;8;7;
74333;PMS5003;62753;40.394;-80.022;2023-10-31T06:35:08;13;12;
74333;PMS5003;62753;40.394;-80.022;2023-10-31T06:37:33;8;7;
74333;PMS5003;62753;40.394;-80.022;2023-10-31T06:39:59;9;8;
74333;PMS5003;62753;40.394;-80.022;2023-10-31T06:42:24;8;8;
74333;PMS5003;62753;40.394;-80.022;2023-10-31T06:44:49;9;9;
74333;PMS5003;62753;40.394;-80.022;2023-10-31T06:47:15;12;12;
74333;PMS5003;62753;40.394;-80.022;2023-10-31T06:49:40;19;11;
74333;PMS5003;62753;40.394;-80.022;2023-10-31T06:52:06;12;11;
74333;PMS5003;62753;40.394;-80.022;2023-10-31T06:54:31;9;8;
74333;PMS5003;62753;40.394;-80.022;2023-10-31T06:56:57;10;8;
74333;PMS5003;62753;40.394;-80.022;2023-10-31T06:59:22;8;8;
74333;PMS5003;62753;40.394;-80.022;2023-10-31T07:01:48;10;9;
74333;PMS5003;62753;40.394;-80.022;2023-10-31T07:04:13;9;9;
74333;PMS5003;62753;40.394;-80.022;2023-10-31T07:06:39;10;10;
74333;PMS5003;62753;40.394;-80.022;2023-10-31T07:09:04;10;9;
74333;PMS5003;62753;40.394;-80.022;2023-10-31T07:11:30;10;9;
74333;PMS5003;62753;40.394;-80.022;2023-10-31T07:13:55;11;10;
74333;PMS5003;62753;40.394;-80.022;2023-10-31T07:16:21;9;9;
74333;PMS5003;62753;40.394;-80.022;2023-10-31T07:18:47;11;10;
74333;PMS5003;62753;40.394;-80.022;2023-10-31T07:21:12;11;9;
74333;PMS5003;62753;40.394;-80.022;2023-10-31T07:23:37;8;8;
74333;PMS5003;62753;40.394;-80.022;2023-10-31T07:26:03;10;9;
74333;PMS5003;62753;40.394;-80.022;2023-10-31T07:28:28;9;8;
74333;PMS5003;62753;40.394;-80.022;2023-10-31T07:30:54;11;10;
74333;PMS5003;62753;40.394;-80.022;2023-10-31T07:33:19;10;10;
74333;PMS5003;62753;40.394;-80.022;2023-10-31T07:35:44;16;11;
74333;PMS5003;62753;40.394;-80.022;2023-10-31T07:38:10;15;11;
74333;PMS5003;62753;40.394;-80.022;2023-10-31T07:40:36;9;9;
74333;PMS5003;62753;40.394;-80.022;2023-10-31T07:43:01;10;9;
74333;PMS5003;62753;40.394;-80.022;2023-10-31T07:45:27;12;12;
74333;PMS5003;62753;40.394;-80.022;2023-10-31T07:47:52;14;11;
74333;PMS5003;62753;40.394;-80.022;2023-10-31T07:50:18;10;9;
74333;PMS5003;62753;40.394;-80.022;2023-10-31T07:52:43;11;10;
74333;PMS5003;62753;40.394;-80.022;2023-10-31T07:55:09;11;11;
74333;PMS5003;62753;40.394;-80.022;2023-10-31T07:57:35;9;9;
74333;PMS5003;62753;40.394;-80.022;2023-10-31T08:00:00;13;10;
74333;PMS5003;62753;40.394;-80.022;2023-10-31T08:02:26;9;9;
74333;PMS5003;62753;40.394;-80.022;2023-10-31T08:04:51;10;9;
74333;PMS5003;62753;40.394;-80.022;2023-10-31T08:07:16;15;15;
74333;PMS5003;62753;40.394;-80.022;2023-10-31T08:09:42;13;10;
74333;PMS5003;62753;40.394;-80.022;2023-10-31T08:12:07;12;10;
74333;PMS5003;62753;40.394;-80.022;2023-10-31T08:14:33;15;13;
74333;PMS5003;62753;40.394;-80.022;2023-10-31T08:16:58;12;10;
74333;PMS5003;62753;40.394;-80.022;2023-10-31T08:19:24;12;10;
74333;PMS5003;62753;40.394;-80.022;2023-10-31T08:21:49;11;9;
74333;PMS5003;62753;40.394;-80.022;2023-10-31T08:24:15;13;12;
74333;PMS5003;62753;40.394;-80.022;2023-10-31T08:26:40;9;9;
74333;PMS5003;62753;40.394;-80.022;2023-10-31T08:29:06;13;10;
74333;PMS5003;62753;40.394;-80.022;2023-10-31T08:31:31;9;9;
74333;PMS5003;62753;40.394;-80.022;2023-10-31T08:33:57;9;9;
74333;PMS5003;62753;40.394;-80.022;2023-10-31T08:36:22;13;12;
74333;PMS5003;62753;40.394;-80.022;2023-10-31T08:38:48;14;14;
74333;PMS5003;62753;40.394;-80.022;2023-10-31T08:41:13;10;9;
74333;PMS5003;62753;40.394;-80.022;2023-10-31T08:43:39;9;8;
74333;PMS5003;62753;40.394;-80.022;2023-10-31T08:46:04;13;12;
74333;PMS5003;62753;40.394;-80.022;2023-10-31T08:48:30;12;9;
74333;PMS5003;62753;40.394;-80.022;2023-10-31T08:50:55;14;12;
74333;PMS5003;62753;40.394;-80.022;2023-10-31T08:53:21;12;9;
74333;PMS5003;62753;40.394;-80.022;2023-10-31T08:55:47;11;11;
74333;PMS5003;62753;40.394;-80.022;2023-10-31T08:58:12;12;11;
74333;PMS5003;62753;40.394;-80.022;2023-10-31T09:00:38;13;12;
74333;PMS5003;62753;40.394;-80.022;2023-10-31T09:03:03;11;9;
74333;PMS5003;62753;40.394;-80.022;2023-10-31T09:05:29;12;11;
74333;PMS5003;62753;40.394;-80.022;2023-10-31T09:07:54;11;9;
74333;PMS5003;62753;40.394;-80.022;2023-10-31T09:10:19;13;11;
74333;PMS5003;62753;40.394;-80.022;2023-10-31T09:12:45;13;13;
74333;PMS5003;62753;40.394;-80.022;2023-10-31T09:15:11;14;13;
74333;PMS5003;62753;40.394;-80.022;2023-10-31T09:17:36;13;12;
74333;PMS5003;62753;40.394;-80.022;2023-10-31T09:20:02;16;10;
74333;PMS5003;62753;40.394;-80.022;2023-10-31T09:22:27;13;12;
74333;PMS5003;62753;40.394;-80.022;2023-10-31T09:24:52;13;12;
74333;PMS5003;62753;40.394;-80.022;2023-10-31T09:27:18;11;10;
74333;PMS5003;62753;40.394;-80.022;2023-10-31T09:29:43;12;12;
74333;PMS5003;62753;40.394;-80.022;2023-10-31T09:32:09;15;14;
74333;PMS5003;62753;40.394;-80.022;2023-10-31T09:34:34;14;12;
74333;PMS5003;62753;40.394;-80.022;2023-10-31T09:37:00;12;10;
74333;PMS5003;62753;40.394;-80.022;2023-10-31T09:39:25;12;12;
74333;PMS5003;62753;40.394;-80.022;2023-10-31T09:41:50;12;10;
74333;PMS5003;62753;40.394;-80.022;2023-10-31T09:44:16;8;7;
74333;PMS5003;62753;40.394;-80.022;2023-10-31T09:46:42;13;12;
74333;PMS5003;62753;40.394;-80.022;2023-10-31T09:49:07;10;9;
74333;PMS5003;62753;40.394;-80.022;2023-10-31T09:51:33;13;12;
74333;PMS5003;62753;40.394;-80.022;2023-10-31T09:53:58;12;10;
74333;PMS5003;62753;40.394;-80.022;2023-10-31T09:56:23;13;11;
74333;PMS5003;62753;40.394;-80.022;2023-10-31T09:58:48;19;14;
74333;PMS5003;62753;40.394;-80.022;2023-10-31T10:01:14;13;10;
74333;PMS5003;62753;40.394;-80.022;2023-10-31T10:03:40;7;7;
74333;PMS5003;62753;40.394;-80.022;2023-10-31T10:06:05;9;9;
74333;PMS5003;62753;40.394;-80.022;2023-10-31T10:08:30;10;10;
74333;PMS5003;62753;40.394;-80.022;2023-10-31T10:10:56;13;10;
74333;PMS5003;62753;40.394;-80.022;2023-10-31T10:13:21;9;9;
74333;PMS5003;62753;40.394;-80.022;2023-10-31T10:15:47;9;9;
74333;PMS5003;62753;40.394;-80.022;2023-10-31T10:20:42;15;13;
74333;PMS5003;62753;40.394;-80.022;2023-10-31T10:23:03;10;8;
74333;PMS5003;62753;40.394;-80.022;2023-10-31T10:25:28;16;13;
74333;PMS5003;62753;40.394;-80.022;2023-10-31T10:27:54;16;12;
74333;PMS5003;62753;40.394;-80.022;2023-10-31T10:30:19;12;10;
74333;PMS5003;62753;40.394;-80.022;2023-10-31T10:32:45;14;11;
74333;PMS5003;62753;40.394;-80.022;2023-10-31T10:35:10;14;13;
74333;PMS5003;62753;40.394;-80.022;2023-10-31T10:37:36;12;10;
74333;PMS5003;62753;40.394;-80.022;2023-10-31T10:40:01;15;13;
74333;PMS5003;62753;40.394;-80.022;2023-10-31T10:42:30;11;10;
74333;PMS5003;62753;40.394;-80.022;2023-10-31T10:44:52;14;11;
74333;PMS5003;62753;40.394;-80.022;2023-10-31T10:47:18;12;11;
74333;PMS5003;62753;40.394;-80.022;2023-10-31T10:49:44;11;9;
74333;PMS5003;62753;40.394;-80.022;2023-10-31T10:52:14;13;10;
74333;PMS5003;62753;40.394;-80.022;2023-10-31T10:54:35;14;13;
74333;PMS5003;62753;40.394;-80.022;2023-10-31T10:57:02;13;11;
74333;PMS5003;62753;40.394;-80.022;2023-10-31T10:59:27;9;9;
74333;PMS5003;62753;40.394;-80.022;2023-10-31T11:01:51;11;10;
74333;PMS5003;62753;40.394;-80.022;2023-10-31T11:04:16;10;9;
74333;PMS5003;62753;40.394;-80.022;2023-10-31T11:06:42;14;10;
74333;PMS5003;62753;40.394;-80.022;2023-10-31T11:09:07;15;13;
74333;PMS5003;62753;40.394;-80.022;2023-10-31T11:11:33;11;10;
74333;PMS5003;62753;40.394;-80.022;2023-10-31T11:13:59;10;10;
74333;PMS5003;62753;40.394;-80.022;2023-10-31T11:16:25;9;9;
74333;PMS5003;62753;40.394;-80.022;2023-10-31T11:18:49;15;14;
74333;PMS5003;62753;40.394;-80.022;2023-10-31T11:21:14;9;9;
74333;PMS5003;62753;40.394;-80.022;2023-10-31T11:23:40;11;11;
74333;PMS5003;62753;40.394;-80.022;2023-10-31T11:26:06;12;11;
74333;PMS5003;62753;40.394;-80.022;2023-10-31T11:28:31;11;11;
74333;PMS5003;62753;40.394;-80.022;2023-10-31T11:30:56;12;11;
74333;PMS5003;62753;40.394;-80.022;2023-10-31T11:33:22;9;9;
74333;PMS5003;62753;40.394;-80.022;2023-10-31T11:35:49;9;9;
74333;PMS5003;62753;40.394;-80.022;2023-10-31T11:38:13;11;9;
74333;PMS5003;62753;40.394;-80.022;2023-10-31T11:40:39;14;11;
74333;PMS5003;62753;40.394;-80.022;2023-10-31T11:43:04;11;9;
74333;PMS5003;62753;40.394;-80.022;2023-10-31T11:45:30;10;10;
74333;PMS5003;62753;40.394;-80.022;2023-10-31T11:47:54;11;11;
74333;PMS5003;62753;40.394;-80.022;2023-10-31T11:50:20;13;13;
74333;PMS5003;62753;40.394;-80.022;2023-10-31T11:52:45;8;8;
74333;PMS5003;62753;40.394;-80.022;2023-10-31T11:55:11;11;10;
74333;PMS5003;62753;40.394;-80.022;2023-10-31T11:57:36;9;9;
74333;PMS5003;62753;40.394;-80.022;2023-10-31T12:00:02;9;9;
74333;PMS5003;62753;40.394;-80.022;2023-10-31T12:02:27;12;10;
74333;PMS5003;62753;40.394;-80.022;2023-10-31T12:07:18;13;10;
74333;PMS5003;62753;40.394;-80.022;2023-10-31T12:09:46;10;9;
74333;PMS5003;62753;40.394;-80.022;2023-10-31T12:12:09;9;8;
74333;PMS5003;62753;40.394;-80.022;2023-10-31T12:14:34;11;10;
74333;PMS5003;62753;40.394;-80.022;2023-10-31T12:17:03;10;10;
74333;PMS5003;62753;40.394;-80.022;2023-10-31T12:19:26;12;12;
74333;PMS5003;62753;40.394;-80.022;2023-10-31T12:21:51;13;10;
74333;PMS5003;62753;40.394;-80.022;2023-10-31T12:24:17;11;10;
74333;PMS5003;62753;40.394;-80.022;2023-10-31T12:26:43;14;12;
74333;PMS5003;62753;40.394;-80.022;2023-10-31T12:29:09;9;9;
74333;PMS5003;62753;40.394;-80.022;2023-10-31T12:31:33;12;11;
74333;PMS5003;62753;40.394;-80.022;2023-10-31T12:36:24;11;11;
74333;PMS5003;62753;40.394;-80.022;2023-10-31T12:38:49;10;10;
74333;PMS5003;62753;40.394;-80.022;2023-10-31T12:41:15;11;10;
74333;PMS5003;62753;40.394;-80.022;2023-10-31T12:43:40;10;10;
74333;PMS5003;62753;40.394;-80.022;2023-10-31T12:48:31;12;11;
74333;PMS5003;62753;40.394;-80.022;2023-10-31T12:53:23;11;10;
74333;PMS5003;62753;40.394;-80.022;2023-10-31T12:55:48;11;9;
74333;PMS5003;62753;40.394;-80.022;2023-10-31T13:00:40;11;10;
74333;PMS5003;62753;40.394;-80.022;2023-10-31T13:03:06;11;10;
74333;PMS5003;62753;40.394;-80.022;2023-10-31T13:05:30;14;12;
74333;PMS5003;62753;40.394;-80.022;2023-10-31T13:07:55;11;10;
74333;PMS5003;62753;40.394;-80.022;2023-10-31T13:10:21;10;10;
74333;PMS5003;62753;40.394;-80.022;2023-10-31T13:12:46;15;13;
74333;PMS5003;62753;40.394;-80.022;2023-10-31T13:15:12;11;10;
74333;PMS5003;62753;40.394;-80.022;2023-10-31T13:17:37;11;11;
74333;PMS5003;62753;40.394;-80.022;2023-10-31T13:20:03;10;9;
74333;PMS5003;62753;40.394;-80.022;2023-10-31T13:22:28;16;14;
74333;PMS5003;62753;40.394;-80.022;2023-10-31T13:24:54;13;11;
74333;PMS5003;62753;40.394;-80.022;2023-10-31T13:27:19;12;11;
74333;PMS5003;62753;40.394;-80.022;2023-10-31T13:29:45;12;10;
74333;PMS5003;62753;40.394;-80.022;2023-10-31T13:32:11;13;11;
74333;PMS5003;62753;40.394;-80.022;2023-10-31T13:34:36;12;11;
74333;PMS5003;62753;40.394;-80.022;2023-10-31T13:37:02;14;13;
74333;PMS5003;62753;40.394;-80.022;2023-10-31T13:39:27;12;11;
74333;PMS5003;62753;40.394;-80.022;2023-10-31T13:41:52;10;10;
74333;PMS5003;62753;40.394;-80.022;2023-10-31T13:44:18;13;13;
74333;PMS5003;62753;40.394;-80.022;2023-10-31T13:46:43;13;12;
74333;PMS5003;62753;40.394;-80.022;2023-10-31T13:49:09;11;11;
74333;PMS5003;62753;40.394;-80.022;2023-10-31T13:51:34;11;10;
74333;PMS5003;62753;40.394;-80.022;2023-10-31T13:53:59;14;11;
74333;PMS5003;62753;40.394;-80.022;2023-10-31T13:56:25;10;10;
74333;PMS5003;62753;40.394;-80.022;2023-10-31T13:58:50;12;11;
74333;PMS5003;62753;40.394;-80.022;2023-10-31T14:01:16;12;11;
74333;PMS5003;62753;40.394;-80.022;2023-10-31T14:03:41;13;11;
74333;PMS5003;62753;40.394;-80.022;2023-10-31T14:06:07;13;10;
74333;PMS5003;62753;40.394;-80.022;2023-10-31T14:08:32;9;9;
74333;PMS5003;62753;40.394;-80.022;2023-10-31T14:10:57;12;11;
74333;PMS5003;62753;40.394;-80.022;2023-10-31T14:13:23;15;12;
74333;PMS5003;62753;40.394;-80.022;2023-10-31T14:15:48;13;11;
74333;PMS5003;62753;40.394;-80.022;2023-10-31T14:18:13;15;11;
74333;PMS5003;62753;40.394;-80.022;2023-10-31T14:20:38;13;12;
74333;PMS5003;62753;40.394;-80.022;2023-10-31T14:23:04;14;13;
74333;PMS5003;62753;40.394;-80.022;2023-10-31T14:25:29;14;13;
74333;PMS5003;62753;40.394;-80.022;2023-10-31T14:27:55;16;14;
74333;PMS5003;62753;40.394;-80.022;2023-10-31T14:30:20;11;11;
74333;PMS5003;62753;40.394;-80.022;2023-10-31T14:32:46;14;13;
74333;PMS5003;62753;40.394;-80.022;2023-10-31T14:35:11;13;13;
74333;PMS5003;62753;40.394;-80.022;2023-10-31T14:37:36;13;12;
74333;PMS5003;62753;40.394;-80.022;2023-10-31T14:40:02;14;13;
74333;PMS5003;62753;40.394;-80.022;2023-10-31T14:42:27;14;13;
74333;PMS5003;62753;40.394;-80.022;2023-10-31T14:44:53;13;12;
74333;PMS5003;62753;40.394;-80.022;2023-10-31T14:47:18;15;13;
74333;PMS5003;62753;40.394;-80.022;2023-10-31T14:49:44;18;15;
74333;PMS5003;62753;40.394;-80.022;2023-10-31T14:52:09;13;12;
74333;PMS5003;62753;40.394;-80.022;2023-10-31T14:54:35;13;12;
74333;PMS5003;62753;40.394;-80.022;2023-10-31T14:57:00;17;15;
74333;PMS5003;62753;40.394;-80.022;2023-10-31T14:59:25;12;12;
74333;PMS5003;62753;40.394;-80.022;2023-10-31T15:01:51;17;15;
74333;PMS5003;62753;40.394;-80.022;2023-10-31T15:04:16;15;14;
74333;PMS5003;62753;40.394;-80.022;2023-10-31T15:06:42;14;11;
74333;PMS5003;62753;40.394;-80.022;2023-10-31T15:09:07;13;11;
74333;PMS5003;62753;40.394;-80.022;2023-10-31T15:11:33;12;11;
74333;PMS5003;62753;40.394;-80.022;2023-10-31T15:13:58;15;13;
74333;PMS5003;62753;40.394;-80.022;2023-10-31T15:16:23;16;13;
74333;PMS5003;62753;40.394;-80.022;2023-10-31T15:18:49;16;14;
74333;PMS5003;62753;40.394;-80.022;2023-10-31T15:21:14;16;15;
74333;PMS5003;62753;40.394;-80.022;2023-10-31T15:23:39;19;15;
74333;PMS5003;62753;40.394;-80.022;2023-10-31T15:26:05;15;13;
74333;PMS5003;62753;40.394;-80.022;2023-10-31T15:28:30;14;14;
74333;PMS5003;62753;40.394;-80.022;2023-10-31T15:30:56;19;15;
74333;PMS5003;62753;40.394;-80.022;2023-10-31T15:33:21;13;11;
74333;PMS5003;62753;40.394;-80.022;2023-10-31T15:35:47;13;11;
74333;PMS5003;62753;40.394;-80.022;2023-10-31T15:38:12;13;13;
74333;PMS5003;62753;40.394;-80.022;2023-10-31T15:40:38;14;14;
74333;PMS5003;62753;40.394;-80.022;2023-10-31T15:43:03;13;13;
74333;PMS5003;62753;40.394;-80.022;2023-10-31T15:45:29;12;12;
74333;PMS5003;62753;40.394;-80.022;2023-10-31T15:47:54;12;12;
74333;PMS5003;62753;40.394;-80.022;2023-10-31T15:50:19;16;14;
74333;PMS5003;62753;40.394;-80.022;2023-10-31T15:52:45;17;15;
74333;PMS5003;62753;40.394;-80.022;2023-10-31T15:55:10;14;13;
74333;PMS5003;62753;40.394;-80.022;2023-10-31T15:57:36;14;12;
74333;PMS5003;62753;40.394;-80.022;2023-10-31T16:00:01;18;16;
74333;PMS5003;62753;40.394;-80.022;2023-10-31T16:02:26;16;14;